sensor_id;sensor_type;location;lat;lon;timestamp;P1;durP1;ratioP1;P2;durP2;ratioP2
3337;SDS011;1682;49.286;10.788;2023-05-10T00:01:46;16.63;;;8.70;;
3337;SDS011;1682;49.286;10.788;2023-05-10T00:04:13;9.47;;;8.53;;
3337;SDS011;1682;49.286;10.788;2023-05-10T00:06:41;10.10;;;9.10;;
3337;SDS011;1682;49.286;10.788;2023-05-10T00:09:08;8.10;;;7.30;;
3337;SDS011;1682;49.286;10.788;2023-05-10T00:11:35;8.37;;;7.57;;
3337;SDS011;1682;49.286;10.788;2023-05-10T00:14:02;9.07;;;8.17;;
3337;SDS011;1682;49.286;10.788;2023-05-10T00:16:29;9.67;;;8.70;;
3337;SDS011;1682;49.286;10.788;2023-05-10T00:18:58;9.03;;;7.83;;
3337;SDS011;1682;49.286;10.788;2023-05-10T00:21:25;11.97;;;10.67;;
3337;SDS011;1682;49.286;10.788;2023-05-10T00:23:53;17.67;;;12.47;;
3337;SDS011;1682;49.286;10.788;2023-05-10T00:26:20;12.67;;;10.00;;
3337;SDS011;1682;49.286;10.788;2023-05-10T00:28:48;22.83;;;14.43;;
3337;SDS011;1682;49.286;10.788;2023-05-10T00:31:15;12.53;;;8.10;;
3337;SDS011;1682;49.286;10.788;2023-05-10T00:33:42;9.90;;;7.97;;
3337;SDS011;1682;49.286;10.788;2023-05-10T00:36:11;7.90;;;7.10;;
3337;SDS011;1682;49.286;10.788;2023-05-10T00:38:38;7.93;;;6.30;;
3337;SDS011;1682;49.286;10.788;2023-05-10T00:41:05;5.90;;;5.30;;
3337;SDS011;1682;49.286;10.788;2023-05-10T00:43:33;6.77;;;5.17;;
3337;SDS011;1682;49.286;10.788;2023-05-10T00:46:00;7.83;;;6.73;;
3337;SDS011;1682;49.286;10.788;2023-05-10T00:48:28;6.63;;;6.03;;
3337;SDS011;1682;49.286;10.788;2023-05-10T00:50:55;19.70;;;11.27;;
3337;SDS011;1682;49.286;10.788;2023-05-10T00:53:24;7.23;;;6.00;;
3337;SDS011;1682;49.286;10.788;2023-05-10T00:55:51;7.30;;;5.80;;
3337;SDS011;1682;49.286;10.788;2023-05-10T00:58:18;10.43;;;7.40;;
3337;SDS011;1682;49.286;10.788;2023-05-10T01:00:46;6.13;;;5.27;;
3337;SDS011;1682;49.286;10.788;2023-05-10T01:03:13;7.30;;;6.17;;
3337;SDS011;1682;49.286;10.788;2023-05-10T01:05:40;6.60;;;6.00;;
3337;SDS011;1682;49.286;10.788;2023-05-10T01:08:08;7.00;;;6.30;;
3337;SDS011;1682;49.286;10.788;2023-05-10T01:10:36;5.80;;;5.20;;
3337;SDS011;1682;49.286;10.788;2023-05-10T01:13:04;8.30;;;6.67;;
3337;SDS011;1682;49.286;10.788;2023-05-10T01:15:31;6.80;;;6.00;;
3337;SDS011;1682;49.286;10.788;2023-05-10T01:17:58;8.10;;;6.23;;
3337;SDS011;1682;49.286;10.788;2023-05-10T01:20:26;6.80;;;5.90;;
3337;SDS011;1682;49.286;10.788;2023-05-10T01:28:53;5.70;;;4.73;;
3337;SDS011;1682;49.286;10.788;2023-05-10T01:31:30;5.50;;;4.97;;
3337;SDS011;1682;49.286;10.788;2023-05-10T01:34:05;5.50;;;4.40;;
3337;SDS011;1682;49.286;10.788;2023-05-10T01:36:35;4.53;;;4.13;;
3337;SDS011;1682;49.286;10.788;2023-05-10T01:39:09;5.00;;;4.13;;
3337;SDS011;1682;49.286;10.788;2023-05-10T01:41:40;3.40;;;3.20;;
3337;SDS011;1682;49.286;10.788;2023-05-10T01:44:10;3.60;;;3.40;;
3337;SDS011;1682;49.286;10.788;2023-05-10T01:46:40;3.53;;;3.23;;
3337;SDS011;1682;49.286;10.788;2023-05-10T01:49:11;3.67;;;3.37;;
3337;SDS011;1682;49.286;10.788;2023-05-10T01:51:41;3.60;;;3.30;;
3337;SDS011;1682;49.286;10.788;2023-05-10T01:54:12;3.33;;;3.03;;
3337;SDS011;1682;49.286;10.788;2023-05-10T01:56:40;3.13;;;2.63;;
3337;SDS011;1682;49.286;10.788;2023-05-10T01:59:12;2.43;;;2.33;;
3337;SDS011;1682;49.286;10.788;2023-05-10T02:01:40;3.00;;;2.47;;
3337;SDS011;1682;49.286;10.788;2023-05-10T02:04:07;3.63;;;2.73;;
3337;SDS011;1682;49.286;10.788;2023-05-10T02:06:38;3.00;;;2.60;;
3337;SDS011;1682;49.286;10.788;2023-05-10T02:09:06;3.00;;;2.80;;
3337;SDS011;1682;49.286;10.788;2023-05-10T02:11:34;2.70;;;2.27;;
3337;SDS011;1682;49.286;10.788;2023-05-10T02:14:01;2.60;;;2.30;;
3337;SDS011;1682;49.286;10.788;2023-05-10T02:16:29;2.73;;;2.17;;
3337;SDS011;1682;49.286;10.788;2023-05-10T02:18:56;1.80;;;1.70;;
3337;SDS011;1682;49.286;10.788;2023-05-10T02:21:25;2.70;;;2.33;;
3337;SDS011;1682;49.286;10.788;2023-05-10T02:23:56;1.40;;;1.30;;
3337;SDS011;1682;49.286;10.788;2023-05-10T02:26:24;1.60;;;1.50;;
3337;SDS011;1682;49.286;10.788;2023-05-10T02:28:52;3.37;;;3.10;;
3337;SDS011;1682;49.286;10.788;2023-05-10T02:31:20;1.33;;;1.23;;
3337;SDS011;1682;49.286;10.788;2023-05-10T02:33:47;1.20;;;1.10;;
3337;SDS011;1682;49.286;10.788;2023-05-10T02:36:15;3.40;;;3.30;;
3337;SDS011;1682;49.286;10.788;2023-05-10T02:38:43;1.33;;;1.20;;
3337;SDS011;1682;49.286;10.788;2023-05-10T02:41:12;1.40;;;1.33;;
3337;SDS011;1682;49.286;10.788;2023-05-10T02:43:39;5.87;;;2.93;;
3337;SDS011;1682;49.286;10.788;2023-05-10T02:46:07;1.20;;;1.10;;
3337;SDS011;1682;49.286;10.788;2023-05-10T02:48:34;2.03;;;1.93;;
3337;SDS011;1682;49.286;10.788;2023-05-10T02:51:03;2.50;;;1.47;;
3337;SDS011;1682;49.286;10.788;2023-05-10T02:53:33;1.10;;;1.03;;
3337;SDS011;1682;49.286;10.788;2023-05-10T02:56:01;1.40;;;1.30;;
3337;SDS011;1682;49.286;10.788;2023-05-10T02:58:33;1.10;;;1.00;;
3337;SDS011;1682;49.286;10.788;2023-05-10T03:01:00;1.00;;;1.00;;
3337;SDS011;1682;49.286;10.788;2023-05-10T03:03:28;1.80;;;1.37;;
3337;SDS011;1682;49.286;10.788;2023-05-10T03:05:55;1.27;;;1.23;;
3337;SDS011;1682;49.286;10.788;2023-05-10T03:08:23;1.20;;;1.10;;
3337;SDS011;1682;49.286;10.788;2023-05-10T03:10:54;1.33;;;1.20;;
3337;SDS011;1682;49.286;10.788;2023-05-10T03:13:24;2.23;;;2.00;;
3337;SDS011;1682;49.286;10.788;2023-05-10T03:15:58;1.47;;;0.80;;
3337;SDS011;1682;49.286;10.788;2023-05-10T03:18:28;0.87;;;0.73;;
3337;SDS011;1682;49.286;10.788;2023-05-10T03:20:56;1.10;;;1.10;;
3337;SDS011;1682;49.286;10.788;2023-05-10T03:23:26;0.80;;;0.80;;
3337;SDS011;1682;49.286;10.788;2023-05-10T03:25:54;1.60;;;1.50;;
3337;SDS011;1682;49.286;10.788;2023-05-10T03:28:21;1.10;;;1.00;;
3337;SDS011;1682;49.286;10.788;2023-05-10T03:30:51;0.90;;;0.90;;
3337;SDS011;1682;49.286;10.788;2023-05-10T03:33:20;1.87;;;1.70;;
3337;SDS011;1682;49.286;10.788;2023-05-10T03:35:48;1.30;;;1.20;;
3337;SDS011;1682;49.286;10.788;2023-05-10T03:38:15;1.43;;;1.13;;
3337;SDS011;1682;49.286;10.788;2023-05-10T03:40:42;1.00;;;1.00;;
3337;SDS011;1682;49.286;10.788;2023-05-10T03:43:09;1.93;;;1.20;;
3337;SDS011;1682;49.286;10.788;2023-05-10T03:45:37;1.33;;;1.10;;
3337;SDS011;1682;49.286;10.788;2023-05-10T03:48:05;1.00;;;1.00;;
3337;SDS011;1682;49.286;10.788;2023-05-10T03:50:33;1.10;;;1.10;;
3337;SDS011;1682;49.286;10.788;2023-05-10T03:53:00;1.00;;;1.00;;
3337;SDS011;1682;49.286;10.788;2023-05-10T03:55:28;1.03;;;1.03;;
3337;SDS011;1682;49.286;10.788;2023-05-10T03:57:59;1.27;;;1.17;;
3337;SDS011;1682;49.286;10.788;2023-05-10T04:00:26;1.30;;;1.20;;
3337;SDS011;1682;49.286;10.788;2023-05-10T04:02:53;1.30;;;0.90;;
3337;SDS011;1682;49.286;10.788;2023-05-10T04:05:21;1.97;;;1.77;;
3337;SDS011;1682;49.286;10.788;2023-05-10T04:07:50;3.70;;;1.57;;
3337;SDS011;1682;49.286;10.788;2023-05-10T04:10:17;0.90;;;0.90;;
3337;SDS011;1682;49.286;10.788;2023-05-10T04:12:44;1.00;;;1.00;;
3337;SDS011;1682;49.286;10.788;2023-05-10T04:15:11;0.93;;;0.93;;
3337;SDS011;1682;49.286;10.788;2023-05-10T04:17:38;1.13;;;1.03;;
3337;SDS011;1682;49.286;10.788;2023-05-10T04:20:06;1.10;;;1.00;;
3337;SDS011;1682;49.286;10.788;2023-05-10T04:22:33;1.07;;;1.03;;
3337;SDS011;1682;49.286;10.788;2023-05-10T04:25:02;0.90;;;0.90;;
3337;SDS011;1682;49.286;10.788;2023-05-10T04:27:29;0.87;;;0.87;;
3337;SDS011;1682;49.286;10.788;2023-05-10T04:29:57;2.23;;;0.90;;
3337;SDS011;1682;49.286;10.788;2023-05-10T04:32:24;0.90;;;0.90;;
3337;SDS011;1682;49.286;10.788;2023-05-10T04:34:51;1.17;;;1.07;;
3337;SDS011;1682;49.286;10.788;2023-05-10T04:37:18;1.23;;;1.13;;
3337;SDS011;1682;49.286;10.788;2023-05-10T04:39:46;0.90;;;0.90;;
3337;SDS011;1682;49.286;10.788;2023-05-10T04:42:15;1.80;;;1.70;;
3337;SDS011;1682;49.286;10.788;2023-05-10T04:44:42;1.70;;;1.60;;
3337;SDS011;1682;49.286;10.788;2023-05-10T04:47:09;1.23;;;1.13;;
3337;SDS011;1682;49.286;10.788;2023-05-10T04:49:38;1.30;;;1.20;;
3337;SDS011;1682;49.286;10.788;2023-05-10T04:52:05;1.70;;;1.60;;
3337;SDS011;1682;49.286;10.788;2023-05-10T04:54:32;1.80;;;1.10;;
3337;SDS011;1682;49.286;10.788;2023-05-10T04:56:59;2.27;;;1.40;;
3337;SDS011;1682;49.286;10.788;2023-05-10T04:59:28;1.03;;;1.03;;
3337;SDS011;1682;49.286;10.788;2023-05-10T05:01:55;1.30;;;1.20;;
3337;SDS011;1682;49.286;10.788;2023-05-10T05:04:23;1.60;;;1.50;;
3337;SDS011;1682;49.286;10.788;2023-05-10T05:06:50;1.50;;;1.40;;
3337;SDS011;1682;49.286;10.788;2023-05-10T05:09:17;2.70;;;2.23;;
3337;SDS011;1682;49.286;10.788;2023-05-10T05:11:45;1.60;;;1.50;;
3337;SDS011;1682;49.286;10.788;2023-05-10T05:14:12;2.00;;;1.90;;
3337;SDS011;1682;49.286;10.788;2023-05-10T05:16:41;2.90;;;1.90;;
3337;SDS011;1682;49.286;10.788;2023-05-10T05:19:08;1.20;;;1.20;;
3337;SDS011;1682;49.286;10.788;2023-05-10T05:21:35;1.63;;;1.53;;
3337;SDS011;1682;49.286;10.788;2023-05-10T05:24:03;1.97;;;1.87;;
3337;SDS011;1682;49.286;10.788;2023-05-10T05:26:30;2.10;;;2.00;;
3337;SDS011;1682;49.286;10.788;2023-05-10T05:28:58;2.43;;;2.23;;
3337;SDS011;1682;49.286;10.788;2023-05-10T05:31:25;2.03;;;1.93;;
3337;SDS011;1682;49.286;10.788;2023-05-10T05:33:54;2.80;;;2.67;;
3337;SDS011;1682;49.286;10.788;2023-05-10T05:36:21;2.60;;;2.40;;
3337;SDS011;1682;49.286;10.788;2023-05-10T05:38:48;3.47;;;2.60;;
3337;SDS011;1682;49.286;10.788;2023-05-10T05:41:15;2.20;;;1.73;;
3337;SDS011;1682;49.286;10.788;2023-05-10T05:43:43;2.63;;;2.43;;
3337;SDS011;1682;49.286;10.788;2023-05-10T05:46:10;2.80;;;2.10;;
3337;SDS011;1682;49.286;10.788;2023-05-10T05:48:37;2.30;;;2.20;;
3337;SDS011;1682;49.286;10.788;2023-05-10T05:51:06;2.23;;;2.13;;
3337;SDS011;1682;49.286;10.788;2023-05-10T05:53:33;2.43;;;2.33;;
3337;SDS011;1682;49.286;10.788;2023-05-10T05:56:00;3.27;;;3.07;;
3337;SDS011;1682;49.286;10.788;2023-05-10T05:58:28;2.30;;;2.20;;
3337;SDS011;1682;49.286;10.788;2023-05-10T06:00:55;2.47;;;2.20;;
3337;SDS011;1682;49.286;10.788;2023-05-10T06:03:22;2.03;;;1.93;;
3337;SDS011;1682;49.286;10.788;2023-05-10T06:05:49;2.40;;;2.30;;
3337;SDS011;1682;49.286;10.788;2023-05-10T06:08:18;7.70;;;7.17;;
3337;SDS011;1682;49.286;10.788;2023-05-10T06:10:45;2.20;;;2.10;;
3337;SDS011;1682;49.286;10.788;2023-05-10T06:13:12;2.80;;;2.60;;
3337;SDS011;1682;49.286;10.788;2023-05-10T06:15:40;3.63;;;2.20;;
3337;SDS011;1682;49.286;10.788;2023-05-10T06:18:07;2.60;;;2.40;;
3337;SDS011;1682;49.286;10.788;2023-05-10T06:20:35;2.63;;;2.43;;
3337;SDS011;1682;49.286;10.788;2023-05-10T06:23:02;2.03;;;1.93;;
3337;SDS011;1682;49.286;10.788;2023-05-10T06:25:30;2.23;;;2.00;;
3337;SDS011;1682;49.286;10.788;2023-05-10T06:27:58;2.50;;;2.40;;
3337;SDS011;1682;49.286;10.788;2023-05-10T06:30:25;2.53;;;2.30;;
3337;SDS011;1682;49.286;10.788;2023-05-10T06:32:53;3.20;;;2.90;;
3337;SDS011;1682;49.286;10.788;2023-05-10T06:35:21;2.50;;;2.20;;
3337;SDS011;1682;49.286;10.788;2023-05-10T06:37:49;3.20;;;2.97;;
3337;SDS011;1682;49.286;10.788;2023-05-10T06:40:16;2.40;;;2.30;;
3337;SDS011;1682;49.286;10.788;2023-05-10T06:42:45;2.40;;;2.30;;
3337;SDS011;1682;49.286;10.788;2023-05-10T06:45:12;2.17;;;2.07;;
3337;SDS011;1682;49.286;10.788;2023-05-10T06:47:40;2.45;;;2.25;;
3337;SDS011;1682;49.286;10.788;2023-05-10T06:50:08;2.03;;;1.93;;
3337;SDS011;1682;49.286;10.788;2023-05-10T06:52:36;2.47;;;2.27;;
3337;SDS011;1682;49.286;10.788;2023-05-10T06:55:03;4.07;;;2.50;;
3337;SDS011;1682;49.286;10.788;2023-05-10T06:57:31;2.50;;;2.40;;
3337;SDS011;1682;49.286;10.788;2023-05-10T06:59:59;2.50;;;2.30;;
3337;SDS011;1682;49.286;10.788;2023-05-10T07:02:29;2.60;;;1.70;;
3337;SDS011;1682;49.286;10.788;2023-05-10T07:04:56;2.00;;;1.90;;
3337;SDS011;1682;49.286;10.788;2023-05-10T07:07:23;2.07;;;1.70;;
3337;SDS011;1682;49.286;10.788;2023-05-10T07:09:54;2.80;;;2.60;;
3337;SDS011;1682;49.286;10.788;2023-05-10T07:12:22;4.30;;;2.57;;
3337;SDS011;1682;49.286;10.788;2023-05-10T07:14:49;2.40;;;2.20;;
3337;SDS011;1682;49.286;10.788;2023-05-10T07:17:18;1.97;;;1.87;;
3337;SDS011;1682;49.286;10.788;2023-05-10T07:19:49;2.53;;;2.33;;
3337;SDS011;1682;49.286;10.788;2023-05-10T07:22:16;2.17;;;2.03;;
3337;SDS011;1682;49.286;10.788;2023-05-10T07:24:44;2.27;;;2.17;;
3337;SDS011;1682;49.286;10.788;2023-05-10T07:27:11;2.40;;;2.20;;
3337;SDS011;1682;49.286;10.788;2023-05-10T07:29:39;1.90;;;1.80;;
3337;SDS011;1682;49.286;10.788;2023-05-10T07:32:06;2.10;;;2.00;;
3337;SDS011;1682;49.286;10.788;2023-05-10T07:34:34;2.40;;;2.30;;
3337;SDS011;1682;49.286;10.788;2023-05-10T07:37:01;2.20;;;2.10;;
3337;SDS011;1682;49.286;10.788;2023-05-10T07:39:29;2.70;;;2.50;;
3337;SDS011;1682;49.286;10.788;2023-05-10T07:41:56;2.50;;;2.40;;
3337;SDS011;1682;49.286;10.788;2023-05-10T07:44:23;2.27;;;2.17;;
3337;SDS011;1682;49.286;10.788;2023-05-10T07:46:50;2.30;;;2.20;;
3337;SDS011;1682;49.286;10.788;2023-05-10T07:49:18;2.00;;;1.90;;
3337;SDS011;1682;49.286;10.788;2023-05-10T07:51:46;5.65;;;3.00;;
3337;SDS011;1682;49.286;10.788;2023-05-10T07:54:14;3.20;;;2.90;;
3337;SDS011;1682;49.286;10.788;2023-05-10T07:56:41;2.43;;;2.23;;
3337;SDS011;1682;49.286;10.788;2023-05-10T07:59:14;2.50;;;2.40;;
3337;SDS011;1682;49.286;10.788;2023-05-10T08:01:41;2.40;;;2.20;;
3337;SDS011;1682;49.286;10.788;2023-05-10T08:04:08;2.57;;;2.47;;
3337;SDS011;1682;49.286;10.788;2023-05-10T08:06:36;2.40;;;2.20;;
3337;SDS011;1682;49.286;10.788;2023-05-10T08:09:05;2.00;;;1.90;;
3337;SDS011;1682;49.286;10.788;2023-05-10T08:11:32;2.07;;;1.97;;
3337;SDS011;1682;49.286;10.788;2023-05-10T08:14:00;5.05;;;2.20;;
3337;SDS011;1682;49.286;10.788;2023-05-10T08:16:27;2.70;;;2.20;;
3337;SDS011;1682;49.286;10.788;2023-05-10T08:18:55;2.63;;;2.50;;
3337;SDS011;1682;49.286;10.788;2023-05-10T08:21:22;1.90;;;1.80;;
3337;SDS011;1682;49.286;10.788;2023-05-10T08:23:49;1.87;;;1.77;;
3337;SDS011;1682;49.286;10.788;2023-05-10T08:26:17;2.00;;;1.90;;
3337;SDS011;1682;49.286;10.788;2023-05-10T08:28:46;2.23;;;2.13;;
3337;SDS011;1682;49.286;10.788;2023-05-10T08:31:13;3.57;;;1.90;;
3337;SDS011;1682;49.286;10.788;2023-05-10T08:33:40;1.60;;;1.50;;
3337;SDS011;1682;49.286;10.788;2023-05-10T08:36:07;1.87;;;1.77;;
3337;SDS011;1682;49.286;10.788;2023-05-10T08:38:35;2.07;;;1.87;;
3337;SDS011;1682;49.286;10.788;2023-05-10T08:41:02;4.03;;;2.37;;
3337;SDS011;1682;49.286;10.788;2023-05-10T08:43:30;1.90;;;1.80;;
3337;SDS011;1682;49.286;10.788;2023-05-10T08:45:59;1.80;;;1.70;;
3337;SDS011;1682;49.286;10.788;2023-05-10T08:48:26;2.50;;;1.80;;
3337;SDS011;1682;49.286;10.788;2023-05-10T08:50:56;3.73;;;2.10;;
3337;SDS011;1682;49.286;10.788;2023-05-10T08:53:24;4.07;;;2.37;;
3337;SDS011;1682;49.286;10.788;2023-05-10T08:55:54;2.00;;;1.90;;
3337;SDS011;1682;49.286;10.788;2023-05-10T08:58:22;1.57;;;1.47;;
3337;SDS011;1682;49.286;10.788;2023-05-10T09:00:50;3.70;;;1.87;;
3337;SDS011;1682;49.286;10.788;2023-05-10T09:03:18;1.20;;;1.10;;
3337;SDS011;1682;49.286;10.788;2023-05-10T09:05:45;1.63;;;1.40;;
3337;SDS011;1682;49.286;10.788;2023-05-10T09:08:14;4.63;;;4.00;;
3337;SDS011;1682;49.286;10.788;2023-05-10T09:10:42;1.90;;;1.80;;
3337;SDS011;1682;49.286;10.788;2023-05-10T09:13:12;2.60;;;1.57;;
3337;SDS011;1682;49.286;10.788;2023-05-10T09:15:40;1.47;;;1.30;;
3337;SDS011;1682;49.286;10.788;2023-05-10T09:18:08;1.70;;;1.23;;
3337;SDS011;1682;49.286;10.788;2023-05-10T09:20:36;1.60;;;1.50;;
3337;SDS011;1682;49.286;10.788;2023-05-10T09:23:03;1.80;;;1.70;;
3337;SDS011;1682;49.286;10.788;2023-05-10T09:25:30;1.90;;;1.70;;
3337;SDS011;1682;49.286;10.788;2023-05-10T09:27:59;1.80;;;1.70;;
3337;SDS011;1682;49.286;10.788;2023-05-10T09:30:27;1.55;;;1.45;;
3337;SDS011;1682;49.286;10.788;2023-05-10T09:32:55;1.63;;;1.53;;
3337;SDS011;1682;49.286;10.788;2023-05-10T09:35:24;4.10;;;2.10;;
3337;SDS011;1682;49.286;10.788;2023-05-10T09:37:52;3.83;;;2.80;;
3337;SDS011;1682;49.286;10.788;2023-05-10T09:40:20;2.10;;;1.90;;
3337;SDS011;1682;49.286;10.788;2023-05-10T09:42:51;1.70;;;1.20;;
3337;SDS011;1682;49.286;10.788;2023-05-10T09:45:19;2.10;;;1.90;;
3337;SDS011;1682;49.286;10.788;2023-05-10T09:47:47;1.63;;;1.53;;
3337;SDS011;1682;49.286;10.788;2023-05-10T09:50:14;3.00;;;1.77;;
3337;SDS011;1682;49.286;10.788;2023-05-10T09:52:49;2.00;;;1.90;;
3337;SDS011;1682;49.286;10.788;2023-05-10T09:55:17;2.30;;;2.10;;
3337;SDS011;1682;49.286;10.788;2023-05-10T09:57:45;2.40;;;2.20;;
3337;SDS011;1682;49.286;10.788;2023-05-10T10:00:16;3.50;;;2.77;;
3337;SDS011;1682;49.286;10.788;2023-05-10T10:02:45;1.97;;;1.87;;
3337;SDS011;1682;49.286;10.788;2023-05-10T10:05:12;2.40;;;2.30;;
3337;SDS011;1682;49.286;10.788;2023-05-10T10:07:40;2.60;;;2.40;;
3337;SDS011;1682;49.286;10.788;2023-05-10T10:10:09;2.80;;;2.70;;
3337;SDS011;1682;49.286;10.788;2023-05-10T10:12:38;2.40;;;2.20;;
3337;SDS011;1682;49.286;10.788;2023-05-10T10:15:06;2.60;;;2.40;;
3337;SDS011;1682;49.286;10.788;2023-05-10T10:17:34;2.00;;;1.80;;
3337;SDS011;1682;49.286;10.788;2023-05-10T10:20:02;4.50;;;1.90;;
3337;SDS011;1682;49.286;10.788;2023-05-10T10:22:30;1.53;;;1.43;;
3337;SDS011;1682;49.286;10.788;2023-05-10T10:24:57;2.03;;;1.93;;
3337;SDS011;1682;49.286;10.788;2023-05-10T10:27:26;2.27;;;1.40;;
3337;SDS011;1682;49.286;10.788;2023-05-10T10:30:00;1.90;;;1.80;;
3337;SDS011;1682;49.286;10.788;2023-05-10T10:32:30;1.73;;;1.63;;
3337;SDS011;1682;49.286;10.788;2023-05-10T10:34:59;4.10;;;2.00;;
3337;SDS011;1682;49.286;10.788;2023-05-10T10:37:40;2.47;;;2.00;;
3337;SDS011;1682;49.286;10.788;2023-05-10T10:40:22;2.43;;;2.23;;
3337;SDS011;1682;49.286;10.788;2023-05-10T10:42:51;1.70;;;1.60;;
3337;SDS011;1682;49.286;10.788;2023-05-10T10:45:19;1.70;;;1.60;;
3337;SDS011;1682;49.286;10.788;2023-05-10T10:47:47;4.93;;;3.00;;
3337;SDS011;1682;49.286;10.788;2023-05-10T10:50:15;1.90;;;1.80;;
3337;SDS011;1682;49.286;10.788;2023-05-10T10:52:42;6.40;;;2.57;;
3337;SDS011;1682;49.286;10.788;2023-05-10T10:55:10;1.57;;;1.43;;
3337;SDS011;1682;49.286;10.788;2023-05-10T10:57:44;3.90;;;2.10;;
3337;SDS011;1682;49.286;10.788;2023-05-10T11:00:26;1.80;;;1.70;;
3337;SDS011;1682;49.286;10.788;2023-05-10T11:02:56;1.80;;;1.70;;
3337;SDS011;1682;49.286;10.788;2023-05-10T11:05:34;3.10;;;2.30;;
3337;SDS011;1682;49.286;10.788;2023-05-10T11:08:06;1.73;;;1.63;;
3337;SDS011;1682;49.286;10.788;2023-05-10T11:10:34;2.47;;;2.10;;
3337;SDS011;1682;49.286;10.788;2023-05-10T11:13:01;1.30;;;1.30;;
3337;SDS011;1682;49.286;10.788;2023-05-10T11:15:30;1.87;;;1.63;;
3337;SDS011;1682;49.286;10.788;2023-05-10T11:17:58;3.03;;;2.27;;
3337;SDS011;1682;49.286;10.788;2023-05-10T11:20:27;3.10;;;2.73;;
3337;SDS011;1682;49.286;10.788;2023-05-10T11:22:58;2.13;;;2.00;;
3337;SDS011;1682;49.286;10.788;2023-05-10T11:25:40;3.00;;;2.80;;
3337;SDS011;1682;49.286;10.788;2023-05-10T11:28:07;2.40;;;2.00;;
3337;SDS011;1682;49.286;10.788;2023-05-10T11:30:36;2.30;;;2.10;;
3337;SDS011;1682;49.286;10.788;2023-05-10T11:33:03;6.13;;;3.20;;
3337;SDS011;1682;49.286;10.788;2023-05-10T11:35:36;3.97;;;3.47;;
3337;SDS011;1682;49.286;10.788;2023-05-10T11:38:06;3.27;;;2.57;;
3337;SDS011;1682;49.286;10.788;2023-05-10T11:40:34;2.30;;;2.10;;
3337;SDS011;1682;49.286;10.788;2023-05-10T11:43:02;2.07;;;1.73;;
3337;SDS011;1682;49.286;10.788;2023-05-10T11:45:29;2.37;;;1.90;;
3337;SDS011;1682;49.286;10.788;2023-05-10T11:48:00;3.20;;;1.77;;
3337;SDS011;1682;49.286;10.788;2023-05-10T11:50:27;3.27;;;2.77;;
3337;SDS011;1682;49.286;10.788;2023-05-10T11:52:55;2.07;;;1.87;;
3337;SDS011;1682;49.286;10.788;2023-05-10T11:55:23;2.10;;;1.90;;
3337;SDS011;1682;49.286;10.788;2023-05-10T11:57:51;1.53;;;1.43;;
3337;SDS011;1682;49.286;10.788;2023-05-10T12:00:19;2.53;;;1.53;;
3337;SDS011;1682;49.286;10.788;2023-05-10T12:02:46;2.43;;;1.43;;
3337;SDS011;1682;49.286;10.788;2023-05-10T12:05:15;1.80;;;1.70;;
3337;SDS011;1682;49.286;10.788;2023-05-10T12:07:42;1.83;;;1.73;;
3337;SDS011;1682;49.286;10.788;2023-05-10T12:10:10;2.60;;;1.90;;
3337;SDS011;1682;49.286;10.788;2023-05-10T12:12:39;2.57;;;1.63;;
3337;SDS011;1682;49.286;10.788;2023-05-10T12:15:11;1.87;;;1.77;;
3337;SDS011;1682;49.286;10.788;2023-05-10T12:17:38;1.90;;;1.80;;
3337;SDS011;1682;49.286;10.788;2023-05-10T12:20:13;1.80;;;1.70;;
3337;SDS011;1682;49.286;10.788;2023-05-10T12:22:42;2.20;;;2.00;;
3337;SDS011;1682;49.286;10.788;2023-05-10T12:25:10;1.80;;;1.70;;
3337;SDS011;1682;49.286;10.788;2023-05-10T12:27:37;3.10;;;2.00;;
3337;SDS011;1682;49.286;10.788;2023-05-10T12:30:05;2.23;;;2.13;;
3337;SDS011;1682;49.286;10.788;2023-05-10T12:32:39;2.07;;;1.97;;
3337;SDS011;1682;49.286;10.788;2023-05-10T12:35:07;1.93;;;1.83;;
3337;SDS011;1682;49.286;10.788;2023-05-10T12:37:34;2.53;;;1.70;;
3337;SDS011;1682;49.286;10.788;2023-05-10T12:40:09;2.20;;;2.00;;
3337;SDS011;1682;49.286;10.788;2023-05-10T12:42:37;2.10;;;2.00;;
3337;SDS011;1682;49.286;10.788;2023-05-10T12:45:05;2.00;;;1.90;;
3337;SDS011;1682;49.286;10.788;2023-05-10T12:47:33;2.20;;;2.10;;
3337;SDS011;1682;49.286;10.788;2023-05-10T12:50:01;2.37;;;2.17;;
3337;SDS011;1682;49.286;10.788;2023-05-10T12:52:29;2.30;;;2.20;;
3337;SDS011;1682;49.286;10.788;2023-05-10T12:54:57;1.67;;;1.57;;
3337;SDS011;1682;49.286;10.788;2023-05-10T12:57:25;1.90;;;1.80;;
3337;SDS011;1682;49.286;10.788;2023-05-10T12:59:53;2.20;;;1.30;;
3337;SDS011;1682;49.286;10.788;2023-05-10T13:02:21;1.60;;;1.50;;
3337;SDS011;1682;49.286;10.788;2023-05-10T13:04:48;2.13;;;1.57;;
3337;SDS011;1682;49.286;10.788;2023-05-10T13:07:15;2.80;;;2.10;;
3337;SDS011;1682;49.286;10.788;2023-05-10T13:09:43;3.53;;;2.00;;
3337;SDS011;1682;49.286;10.788;2023-05-10T13:12:10;1.70;;;1.60;;
3337;SDS011;1682;49.286;10.788;2023-05-10T13:14:38;3.50;;;2.13;;
3337;SDS011;1682;49.286;10.788;2023-05-10T13:17:06;1.80;;;1.70;;
3337;SDS011;1682;49.286;10.788;2023-05-10T13:19:34;1.87;;;1.77;;
3337;SDS011;1682;49.286;10.788;2023-05-10T13:22:02;1.83;;;1.73;;
3337;SDS011;1682;49.286;10.788;2023-05-10T13:24:30;1.70;;;1.60;;
3337;SDS011;1682;49.286;10.788;2023-05-10T13:26:57;2.27;;;2.17;;
3337;SDS011;1682;49.286;10.788;2023-05-10T13:29:25;1.60;;;1.50;;
3337;SDS011;1682;49.286;10.788;2023-05-10T13:31:53;1.80;;;1.70;;
3337;SDS011;1682;49.286;10.788;2023-05-10T13:34:21;1.70;;;1.60;;
3337;SDS011;1682;49.286;10.788;2023-05-10T13:36:49;1.70;;;1.60;;
3337;SDS011;1682;49.286;10.788;2023-05-10T13:39:18;1.87;;;1.77;;
3337;SDS011;1682;49.286;10.788;2023-05-10T13:41:45;3.97;;;2.40;;
3337;SDS011;1682;49.286;10.788;2023-05-10T13:44:13;3.63;;;2.00;;
3337;SDS011;1682;49.286;10.788;2023-05-10T13:46:40;4.10;;;2.40;;
3337;SDS011;1682;49.286;10.788;2023-05-10T13:49:10;1.87;;;1.77;;
3337;SDS011;1682;49.286;10.788;2023-05-10T13:51:37;4.93;;;2.67;;
3337;SDS011;1682;49.286;10.788;2023-05-10T13:54:04;2.73;;;2.53;;
3337;SDS011;1682;49.286;10.788;2023-05-10T13:56:32;2.03;;;1.93;;
3337;SDS011;1682;49.286;10.788;2023-05-10T13:59:00;2.37;;;2.20;;
3337;SDS011;1682;49.286;10.788;2023-05-10T14:01:27;1.90;;;1.80;;
3337;SDS011;1682;49.286;10.788;2023-05-10T14:03:54;4.40;;;1.73;;
3337;SDS011;1682;49.286;10.788;2023-05-10T14:06:23;2.87;;;2.03;;
3337;SDS011;1682;49.286;10.788;2023-05-10T14:08:52;3.40;;;1.53;;
3337;SDS011;1682;49.286;10.788;2023-05-10T14:11:19;1.70;;;1.50;;
3337;SDS011;1682;49.286;10.788;2023-05-10T14:13:46;1.80;;;1.70;;
3337;SDS011;1682;49.286;10.788;2023-05-10T14:16:14;2.47;;;1.20;;
3337;SDS011;1682;49.286;10.788;2023-05-10T14:18:41;3.63;;;1.67;;
3337;SDS011;1682;49.286;10.788;2023-05-10T14:21:08;1.67;;;1.40;;
3337;SDS011;1682;49.286;10.788;2023-05-10T14:23:37;4.00;;;1.90;;
3337;SDS011;1682;49.286;10.788;2023-05-10T14:26:04;1.70;;;1.60;;
3337;SDS011;1682;49.286;10.788;2023-05-10T14:28:31;1.40;;;1.30;;
3337;SDS011;1682;49.286;10.788;2023-05-10T14:30:58;2.33;;;1.73;;
3337;SDS011;1682;49.286;10.788;2023-05-10T14:33:25;4.60;;;1.50;;
3337;SDS011;1682;49.286;10.788;2023-05-10T14:35:53;1.30;;;1.20;;
3337;SDS011;1682;49.286;10.788;2023-05-10T14:38:21;5.53;;;5.03;;
3337;SDS011;1682;49.286;10.788;2023-05-10T14:40:50;1.63;;;1.30;;
3337;SDS011;1682;49.286;10.788;2023-05-10T14:43:18;1.50;;;1.40;;
3337;SDS011;1682;49.286;10.788;2023-05-10T14:45:45;4.73;;;2.00;;
3337;SDS011;1682;49.286;10.788;2023-05-10T14:48:12;2.65;;;2.45;;
3337;SDS011;1682;49.286;10.788;2023-05-10T14:50:42;2.23;;;1.80;;
3337;SDS011;1682;49.286;10.788;2023-05-10T14:53:09;7.30;;;2.00;;
3337;SDS011;1682;49.286;10.788;2023-05-10T14:55:37;1.80;;;1.70;;
3337;SDS011;1682;49.286;10.788;2023-05-10T14:58:06;2.05;;;1.60;;
3337;SDS011;1682;49.286;10.788;2023-05-10T15:00:33;4.10;;;2.63;;
3337;SDS011;1682;49.286;10.788;2023-05-10T15:03:00;1.70;;;1.60;;
3337;SDS011;1682;49.286;10.788;2023-05-10T15:05:28;2.03;;;1.40;;
3337;SDS011;1682;49.286;10.788;2023-05-10T15:07:55;5.40;;;2.35;;
3337;SDS011;1682;49.286;10.788;2023-05-10T15:10:22;9.80;;;2.50;;
3337;SDS011;1682;49.286;10.788;2023-05-10T15:12:50;2.03;;;1.87;;